ROMMA est une association bénévole à but non lucratif. Votre soutien est indispensable : ADHERER à ROMMA ou FAIRE un DON

Granges-lès-Beaumont - (26, Drôme)

Drôme des Collines (155 m)   Longitude: 04°58'E   Latitude: 45°03'N Station partenaire n°123
 

Détail journalier du     <<     >>

Température Precipitation Humidité Pression Vent Dir Rafale Dir. rafale Ensol.
Heure (°C) (mm) (%) (hPa) (km/h) (km/h) (min)
01:00 13.0085101610S26S0
02:00 12.808510167S16S0
03:00 11.708710155SSE19S0
04:00 11.008810154SSE10SSE0
05:00 11.108910155SE11SE0
06:00 10.709110145ESE11ESE0
07:00 12.208610146SSE15SE0
08:00 12.108610147SSE15SE0
09:00 12.608410147SSE18S0
10:00 14.208010147S26S20
11:00 15.0076101315S39S20
12:00 15.7073101319SSO42SSO50
13:00 16.2071101120S44S60
14:00 16.2070101020SSO39S40
15:00 15.9070101021SSO47S0
16:00 15.8072101121SSO45SSO0
17:00 15.3074101120S45S0
18:00 15.5072101016S44S0
19:00 15.0074100814S35S0
20:00 14.5075100716S42SSO0
21:00 14.9070100821SSO45SSO0
22:00 15.0068100720SSO42SSO0
23:00 16.0061100516S42S0
minuit 16.1061100516S40SO0

Graphique du 19-12-2019

 

Serveur OMMA